sensor_id;sensor_type;location;lat;lon;timestamp;P1;durP1;ratioP1;P2;durP2;ratioP2
55589;SDS011;41452;42.780;23.116;2023-07-13T00:00:12;17.25;;;4.10;;
55589;SDS011;41452;42.780;23.116;2023-07-13T00:02:41;5.57;;;3.45;;
55589;SDS011;41452;42.780;23.116;2023-07-13T00:05:07;7.40;;;3.80;;
55589;SDS011;41452;42.780;23.116;2023-07-13T00:07:32;10.70;;;4.32;;
55589;SDS011;41452;42.780;23.116;2023-07-13T00:09:58;10.25;;;4.22;;
55589;SDS011;41452;42.780;23.116;2023-07-13T00:12:28;8.43;;;4.00;;
55589;SDS011;41452;42.780;23.116;2023-07-13T00:14:56;6.93;;;3.65;;
55589;SDS011;41452;42.780;23.116;2023-07-13T00:17:24;9.68;;;4.13;;
55589;SDS011;41452;42.780;23.116;2023-07-13T00:19:50;9.43;;;4.75;;
55589;SDS011;41452;42.780;23.116;2023-07-13T00:22:16;8.48;;;4.50;;
55589;SDS011;41452;42.780;23.116;2023-07-13T00:24:43;7.60;;;4.05;;
55589;SDS011;41452;42.780;23.116;2023-07-13T00:27:09;9.60;;;3.88;;
55589;SDS011;41452;42.780;23.116;2023-07-13T00:29:35;7.65;;;4.18;;
55589;SDS011;41452;42.780;23.116;2023-07-13T00:32:02;10.27;;;3.97;;
55589;SDS011;41452;42.780;23.116;2023-07-13T00:34:31;10.98;;;4.80;;
55589;SDS011;41452;42.780;23.116;2023-07-13T00:36:56;10.77;;;4.07;;
55589;SDS011;41452;42.780;23.116;2023-07-13T00:39:22;8.80;;;3.70;;
55589;SDS011;41452;42.780;23.116;2023-07-13T00:41:48;6.25;;;3.30;;
55589;SDS011;41452;42.780;23.116;2023-07-13T00:44:14;8.55;;;4.03;;
55589;SDS011;41452;42.780;23.116;2023-07-13T00:46:41;9.48;;;3.67;;
55589;SDS011;41452;42.780;23.116;2023-07-13T00:49:07;12.63;;;4.35;;
55589;SDS011;41452;42.780;23.116;2023-07-13T00:51:45;8.80;;;4.15;;
55589;SDS011;41452;42.780;23.116;2023-07-13T00:54:19;9.00;;;4.32;;
55589;SDS011;41452;42.780;23.116;2023-07-13T00:56:50;8.02;;;4.22;;
55589;SDS011;41452;42.780;23.116;2023-07-13T00:59:17;6.45;;;3.72;;
55589;SDS011;41452;42.780;23.116;2023-07-13T01:01:45;9.73;;;3.72;;
55589;SDS011;41452;42.780;23.116;2023-07-13T01:04:10;15.57;;;4.40;;
55589;SDS011;41452;42.780;23.116;2023-07-13T01:06:36;6.65;;;3.95;;
55589;SDS011;41452;42.780;23.116;2023-07-13T01:09:03;9.77;;;4.25;;
55589;SDS011;41452;42.780;23.116;2023-07-13T01:11:30;7.15;;;3.83;;
55589;SDS011;41452;42.780;23.116;2023-07-13T01:13:56;7.72;;;3.83;;
55589;SDS011;41452;42.780;23.116;2023-07-13T01:16:25;6.38;;;3.80;;
55589;SDS011;41452;42.780;23.116;2023-07-13T01:18:54;10.88;;;3.83;;
55589;SDS011;41452;42.780;23.116;2023-07-13T01:21:23;6.47;;;4.13;;
55589;SDS011;41452;42.780;23.116;2023-07-13T01:23:49;11.35;;;3.92;;
55589;SDS011;41452;42.780;23.116;2023-07-13T01:26:14;7.47;;;3.80;;
55589;SDS011;41452;42.780;23.116;2023-07-13T01:28:40;8.70;;;4.10;;
55589;SDS011;41452;42.780;23.116;2023-07-13T01:31:06;7.43;;;4.20;;
55589;SDS011;41452;42.780;23.116;2023-07-13T01:33:33;9.18;;;4.55;;
55589;SDS011;41452;42.780;23.116;2023-07-13T01:35:59;6.70;;;3.70;;
55589;SDS011;41452;42.780;23.116;2023-07-13T01:38:25;10.55;;;4.38;;
55589;SDS011;41452;42.780;23.116;2023-07-13T01:40:51;6.38;;;4.03;;
55589;SDS011;41452;42.780;23.116;2023-07-13T01:43:17;6.82;;;3.95;;
55589;SDS011;41452;42.780;23.116;2023-07-13T01:45:44;8.50;;;4.72;;
55589;SDS011;41452;42.780;23.116;2023-07-13T01:48:10;8.27;;;4.15;;
55589;SDS011;41452;42.780;23.116;2023-07-13T01:50:36;7.72;;;4.63;;
55589;SDS011;41452;42.780;23.116;2023-07-13T01:53:02;6.35;;;3.78;;
55589;SDS011;41452;42.780;23.116;2023-07-13T01:55:28;8.75;;;4.75;;
55589;SDS011;41452;42.780;23.116;2023-07-13T01:57:54;9.20;;;4.47;;
55589;SDS011;41452;42.780;23.116;2023-07-13T02:00:19;6.80;;;3.55;;
55589;SDS011;41452;42.780;23.116;2023-07-13T02:02:45;8.48;;;4.00;;
55589;SDS011;41452;42.780;23.116;2023-07-13T02:05:11;9.65;;;4.20;;
55589;SDS011;41452;42.780;23.116;2023-07-13T02:07:37;10.88;;;4.68;;
55589;SDS011;41452;42.780;23.116;2023-07-13T02:10:03;9.65;;;4.63;;
55589;SDS011;41452;42.780;23.116;2023-07-13T02:12:28;7.75;;;4.38;;
55589;SDS011;41452;42.780;23.116;2023-07-13T02:14:54;6.88;;;4.50;;
55589;SDS011;41452;42.780;23.116;2023-07-13T02:17:19;11.45;;;4.28;;
55589;SDS011;41452;42.780;23.116;2023-07-13T02:19:45;10.23;;;4.55;;
55589;SDS011;41452;42.780;23.116;2023-07-13T02:22:10;9.88;;;4.65;;
55589;SDS011;41452;42.780;23.116;2023-07-13T02:24:36;10.10;;;4.22;;
55589;SDS011;41452;42.780;23.116;2023-07-13T02:27:03;6.90;;;4.55;;
55589;SDS011;41452;42.780;23.116;2023-07-13T02:29:29;8.05;;;4.30;;
55589;SDS011;41452;42.780;23.116;2023-07-13T02:31:54;9.27;;;4.22;;
55589;SDS011;41452;42.780;23.116;2023-07-13T02:34:19;8.18;;;4.43;;
55589;SDS011;41452;42.780;23.116;2023-07-13T02:36:45;8.80;;;4.70;;
55589;SDS011;41452;42.780;23.116;2023-07-13T02:39:11;11.10;;;4.55;;
55589;SDS011;41452;42.780;23.116;2023-07-13T02:41:37;9.02;;;4.82;;
55589;SDS011;41452;42.780;23.116;2023-07-13T02:44:03;8.40;;;4.95;;
55589;SDS011;41452;42.780;23.116;2023-07-13T02:46:29;8.73;;;5.13;;
55589;SDS011;41452;42.780;23.116;2023-07-13T02:48:55;10.90;;;5.13;;
55589;SDS011;41452;42.780;23.116;2023-07-13T02:51:21;13.63;;;5.13;;
55589;SDS011;41452;42.780;23.116;2023-07-13T02:53:46;7.30;;;4.90;;
55589;SDS011;41452;42.780;23.116;2023-07-13T02:56:11;11.65;;;4.60;;
55589;SDS011;41452;42.780;23.116;2023-07-13T02:58:37;12.38;;;4.78;;
55589;SDS011;41452;42.780;23.116;2023-07-13T03:01:06;10.93;;;4.65;;
55589;SDS011;41452;42.780;23.116;2023-07-13T03:03:33;11.30;;;4.82;;
55589;SDS011;41452;42.780;23.116;2023-07-13T03:05:59;10.60;;;5.53;;
55589;SDS011;41452;42.780;23.116;2023-07-13T03:08:27;11.18;;;5.00;;
55589;SDS011;41452;42.780;23.116;2023-07-13T03:11:02;9.15;;;5.03;;
55589;SDS011;41452;42.780;23.116;2023-07-13T03:13:30;13.77;;;5.07;;
55589;SDS011;41452;42.780;23.116;2023-07-13T03:15:55;12.48;;;5.32;;
55589;SDS011;41452;42.780;23.116;2023-07-13T03:18:21;12.52;;;5.18;;
55589;SDS011;41452;42.780;23.116;2023-07-13T03:20:49;14.15;;;5.55;;
55589;SDS011;41452;42.780;23.116;2023-07-13T03:23:16;13.55;;;5.63;;
55589;SDS011;41452;42.780;23.116;2023-07-13T03:25:42;15.10;;;6.10;;
55589;SDS011;41452;42.780;23.116;2023-07-13T03:28:07;16.90;;;5.63;;
55589;SDS011;41452;42.780;23.116;2023-07-13T03:30:33;9.93;;;4.97;;
55589;SDS011;41452;42.780;23.116;2023-07-13T03:32:58;14.00;;;6.10;;
55589;SDS011;41452;42.780;23.116;2023-07-13T03:35:23;14.93;;;6.40;;
55589;SDS011;41452;42.780;23.116;2023-07-13T03:37:49;11.15;;;5.40;;
55589;SDS011;41452;42.780;23.116;2023-07-13T03:40:14;10.35;;;4.97;;
55589;SDS011;41452;42.780;23.116;2023-07-13T03:42:40;8.13;;;5.10;;
55589;SDS011;41452;42.780;23.116;2023-07-13T03:45:05;8.27;;;5.38;;
55589;SDS011;41452;42.780;23.116;2023-07-13T03:47:31;12.85;;;5.15;;
55589;SDS011;41452;42.780;23.116;2023-07-13T03:49:56;13.52;;;5.18;;
55589;SDS011;41452;42.780;23.116;2023-07-13T03:52:22;14.75;;;5.75;;
55589;SDS011;41452;42.780;23.116;2023-07-13T03:54:47;16.98;;;5.32;;
55589;SDS011;41452;42.780;23.116;2023-07-13T03:57:13;13.35;;;5.60;;
55589;SDS011;41452;42.780;23.116;2023-07-13T03:59:38;16.55;;;5.45;;
55589;SDS011;41452;42.780;23.116;2023-07-13T04:02:03;14.38;;;5.88;;
55589;SDS011;41452;42.780;23.116;2023-07-13T04:04:30;10.80;;;5.35;;
55589;SDS011;41452;42.780;23.116;2023-07-13T04:06:55;14.13;;;5.88;;
55589;SDS011;41452;42.780;23.116;2023-07-13T04:09:23;12.57;;;5.18;;
55589;SDS011;41452;42.780;23.116;2023-07-13T04:11:49;10.57;;;4.68;;
55589;SDS011;41452;42.780;23.116;2023-07-13T04:14:15;11.98;;;6.20;;
55589;SDS011;41452;42.780;23.116;2023-07-13T04:16:40;10.88;;;4.75;;
55589;SDS011;41452;42.780;23.116;2023-07-13T04:19:05;12.95;;;5.28;;
55589;SDS011;41452;42.780;23.116;2023-07-13T04:21:31;14.30;;;6.35;;
55589;SDS011;41452;42.780;23.116;2023-07-13T04:23:57;10.50;;;5.88;;
55589;SDS011;41452;42.780;23.116;2023-07-13T04:26:22;9.10;;;5.60;;
55589;SDS011;41452;42.780;23.116;2023-07-13T04:28:48;10.85;;;5.70;;
55589;SDS011;41452;42.780;23.116;2023-07-13T04:31:15;9.35;;;6.05;;
55589;SDS011;41452;42.780;23.116;2023-07-13T04:33:40;9.15;;;5.82;;
55589;SDS011;41452;42.780;23.116;2023-07-13T04:36:06;11.90;;;5.82;;
55589;SDS011;41452;42.780;23.116;2023-07-13T04:38:34;9.85;;;6.07;;
55589;SDS011;41452;42.780;23.116;2023-07-13T04:41:01;12.68;;;6.15;;
55589;SDS011;41452;42.780;23.116;2023-07-13T04:43:28;10.43;;;6.20;;
55589;SDS011;41452;42.780;23.116;2023-07-13T04:45:54;12.48;;;5.90;;
55589;SDS011;41452;42.780;23.116;2023-07-13T04:48:20;9.70;;;6.15;;
55589;SDS011;41452;42.780;23.116;2023-07-13T04:50:46;11.70;;;6.25;;
55589;SDS011;41452;42.780;23.116;2023-07-13T04:53:12;12.68;;;6.13;;
55589;SDS011;41452;42.780;23.116;2023-07-13T04:55:38;12.80;;;6.55;;
55589;SDS011;41452;42.780;23.116;2023-07-13T04:58:03;13.80;;;6.65;;
55589;SDS011;41452;42.780;23.116;2023-07-13T05:00:29;16.63;;;6.55;;
55589;SDS011;41452;42.780;23.116;2023-07-13T05:02:56;15.82;;;6.38;;
55589;SDS011;41452;42.780;23.116;2023-07-13T05:05:22;12.15;;;7.10;;
55589;SDS011;41452;42.780;23.116;2023-07-13T05:07:51;17.20;;;7.35;;
55589;SDS011;41452;42.780;23.116;2023-07-13T05:10:17;13.05;;;6.68;;
55589;SDS011;41452;42.780;23.116;2023-07-13T05:12:42;11.73;;;5.95;;
55589;SDS011;41452;42.780;23.116;2023-07-13T05:15:08;11.70;;;7.05;;
55589;SDS011;41452;42.780;23.116;2023-07-13T05:17:34;16.83;;;6.43;;
55589;SDS011;41452;42.780;23.116;2023-07-13T05:19:59;17.05;;;6.75;;
55589;SDS011;41452;42.780;23.116;2023-07-13T05:22:25;16.30;;;6.90;;
55589;SDS011;41452;42.780;23.116;2023-07-13T05:24:50;16.67;;;7.63;;
55589;SDS011;41452;42.780;23.116;2023-07-13T05:27:16;9.63;;;6.82;;
55589;SDS011;41452;42.780;23.116;2023-07-13T05:29:41;15.10;;;7.35;;
55589;SDS011;41452;42.780;23.116;2023-07-13T05:32:06;16.63;;;6.97;;
55589;SDS011;41452;42.780;23.116;2023-07-13T05:34:32;15.20;;;7.18;;
55589;SDS011;41452;42.780;23.116;2023-07-13T05:36:57;15.95;;;7.28;;
55589;SDS011;41452;42.780;23.116;2023-07-13T05:39:23;16.05;;;8.40;;
55589;SDS011;41452;42.780;23.116;2023-07-13T05:41:48;20.65;;;9.40;;
55589;SDS011;41452;42.780;23.116;2023-07-13T05:44:13;16.23;;;8.95;;
55589;SDS011;41452;42.780;23.116;2023-07-13T05:46:39;19.13;;;8.70;;
55589;SDS011;41452;42.780;23.116;2023-07-13T05:49:04;18.52;;;8.98;;
55589;SDS011;41452;42.780;23.116;2023-07-13T05:51:30;13.32;;;8.23;;
55589;SDS011;41452;42.780;23.116;2023-07-13T05:53:55;18.13;;;7.82;;
55589;SDS011;41452;42.780;23.116;2023-07-13T05:56:21;26.48;;;10.27;;
55589;SDS011;41452;42.780;23.116;2023-07-13T05:58:47;19.23;;;8.45;;
55589;SDS011;41452;42.780;23.116;2023-07-13T06:01:13;18.50;;;8.27;;
55589;SDS011;41452;42.780;23.116;2023-07-13T06:03:40;17.48;;;8.63;;
55589;SDS011;41452;42.780;23.116;2023-07-13T06:06:06;13.93;;;8.30;;
55589;SDS011;41452;42.780;23.116;2023-07-13T06:08:33;16.73;;;7.97;;
55589;SDS011;41452;42.780;23.116;2023-07-13T06:11:06;48.38;;;8.88;;
55589;SDS011;41452;42.780;23.116;2023-07-13T06:13:33;30.23;;;8.50;;
55589;SDS011;41452;42.780;23.116;2023-07-13T06:15:59;19.42;;;7.80;;
55589;SDS011;41452;42.780;23.116;2023-07-13T06:18:25;15.43;;;7.85;;
55589;SDS011;41452;42.780;23.116;2023-07-13T06:20:50;10.68;;;7.47;;
55589;SDS011;41452;42.780;23.116;2023-07-13T06:23:17;13.70;;;7.07;;
55589;SDS011;41452;42.780;23.116;2023-07-13T06:25:42;14.50;;;7.15;;
55589;SDS011;41452;42.780;23.116;2023-07-13T06:28:08;19.92;;;9.52;;
55589;SDS011;41452;42.780;23.116;2023-07-13T06:30:34;18.63;;;8.27;;
55589;SDS011;41452;42.780;23.116;2023-07-13T06:32:59;19.17;;;7.63;;
55589;SDS011;41452;42.780;23.116;2023-07-13T06:35:24;10.95;;;7.43;;
55589;SDS011;41452;42.780;23.116;2023-07-13T06:37:50;14.75;;;7.32;;
55589;SDS011;41452;42.780;23.116;2023-07-13T06:40:15;19.30;;;8.77;;
55589;SDS011;41452;42.780;23.116;2023-07-13T06:42:42;18.65;;;8.52;;
55589;SDS011;41452;42.780;23.116;2023-07-13T06:58:03;19.17;;;8.45;;
55589;SDS011;41452;42.780;23.116;2023-07-13T07:00:29;13.43;;;8.05;;
55589;SDS011;41452;42.780;23.116;2023-07-13T07:02:54;12.38;;;7.28;;
55589;SDS011;41452;42.780;23.116;2023-07-13T07:05:20;15.20;;;8.60;;
55589;SDS011;41452;42.780;23.116;2023-07-13T07:07:49;19.15;;;8.57;;
55589;SDS011;41452;42.780;23.116;2023-07-13T07:10:16;14.55;;;8.00;;
55589;SDS011;41452;42.780;23.116;2023-07-13T07:12:42;27.10;;;9.05;;
55589;SDS011;41452;42.780;23.116;2023-07-13T07:15:07;15.70;;;7.25;;
55589;SDS011;41452;42.780;23.116;2023-07-13T07:17:33;13.57;;;8.20;;
55589;SDS011;41452;42.780;23.116;2023-07-13T07:19:58;10.68;;;7.80;;
55589;SDS011;41452;42.780;23.116;2023-07-13T07:22:24;11.57;;;7.30;;
55589;SDS011;41452;42.780;23.116;2023-07-13T07:24:52;12.93;;;7.95;;
55589;SDS011;41452;42.780;23.116;2023-07-13T07:27:21;13.45;;;8.18;;
55589;SDS011;41452;42.780;23.116;2023-07-13T07:29:46;13.77;;;7.50;;
55589;SDS011;41452;42.780;23.116;2023-07-13T07:32:11;16.27;;;7.60;;
55589;SDS011;41452;42.780;23.116;2023-07-13T07:34:37;14.60;;;8.60;;
55589;SDS011;41452;42.780;23.116;2023-07-13T07:37:03;20.40;;;8.70;;
55589;SDS011;41452;42.780;23.116;2023-07-13T07:39:29;17.40;;;7.90;;
55589;SDS011;41452;42.780;23.116;2023-07-13T07:41:54;11.30;;;7.38;;
55589;SDS011;41452;42.780;23.116;2023-07-13T07:44:19;11.70;;;7.40;;
55589;SDS011;41452;42.780;23.116;2023-07-13T07:46:45;9.80;;;6.97;;
55589;SDS011;41452;42.780;23.116;2023-07-13T07:49:11;12.32;;;8.15;;
55589;SDS011;41452;42.780;23.116;2023-07-13T07:51:36;15.32;;;7.60;;
55589;SDS011;41452;42.780;23.116;2023-07-13T07:54:03;18.30;;;8.40;;
55589;SDS011;41452;42.780;23.116;2023-07-13T07:56:29;11.38;;;7.88;;
55589;SDS011;41452;42.780;23.116;2023-07-13T07:58:54;13.88;;;8.05;;
55589;SDS011;41452;42.780;23.116;2023-07-13T08:01:20;17.33;;;6.80;;
55589;SDS011;41452;42.780;23.116;2023-07-13T08:03:46;15.80;;;7.03;;
55589;SDS011;41452;42.780;23.116;2023-07-13T08:06:11;18.13;;;7.13;;
55589;SDS011;41452;42.780;23.116;2023-07-13T08:08:37;11.38;;;7.03;;
55589;SDS011;41452;42.780;23.116;2023-07-13T08:11:04;13.05;;;6.72;;
55589;SDS011;41452;42.780;23.116;2023-07-13T08:13:30;15.13;;;6.85;;
55589;SDS011;41452;42.780;23.116;2023-07-13T08:15:55;14.15;;;7.13;;
55589;SDS011;41452;42.780;23.116;2023-07-13T08:18:21;28.80;;;7.88;;
55589;SDS011;41452;42.780;23.116;2023-07-13T08:20:46;10.57;;;5.65;;
55589;SDS011;41452;42.780;23.116;2023-07-13T08:23:11;21.05;;;5.88;;
55589;SDS011;41452;42.780;23.116;2023-07-13T08:25:37;27.17;;;6.47;;
55589;SDS011;41452;42.780;23.116;2023-07-13T08:28:02;9.07;;;5.30;;
55589;SDS011;41452;42.780;23.116;2023-07-13T08:30:29;12.13;;;4.50;;
55589;SDS011;41452;42.780;23.116;2023-07-13T08:32:54;40.35;;;6.53;;
55589;SDS011;41452;42.780;23.116;2023-07-13T08:35:19;8.80;;;3.95;;
55589;SDS011;41452;42.780;23.116;2023-07-13T08:37:45;8.85;;;3.75;;
55589;SDS011;41452;42.780;23.116;2023-07-13T08:40:11;11.05;;;3.88;;
55589;SDS011;41452;42.780;23.116;2023-07-13T08:50:47;6.72;;;3.50;;
55589;SDS011;41452;42.780;23.116;2023-07-13T08:53:53;11.82;;;4.15;;
55589;SDS011;41452;42.780;23.116;2023-07-13T08:56:22;7.35;;;3.60;;
55589;SDS011;41452;42.780;23.116;2023-07-13T08:59:05;7.10;;;3.42;;
55589;SDS011;41452;42.780;23.116;2023-07-13T09:01:47;6.30;;;3.75;;
55589;SDS011;41452;42.780;23.116;2023-07-13T09:04:45;5.90;;;3.13;;
55589;SDS011;41452;42.780;23.116;2023-07-13T09:07:20;8.52;;;4.15;;
55589;SDS011;41452;42.780;23.116;2023-07-13T09:15:49;6.28;;;3.53;;
55589;SDS011;41452;42.780;23.116;2023-07-13T09:21:03;10.23;;;4.07;;
55589;SDS011;41452;42.780;23.116;2023-07-13T09:23:32;12.60;;;4.20;;
55589;SDS011;41452;42.780;23.116;2023-07-13T09:26:22;7.82;;;4.38;;
55589;SDS011;41452;42.780;23.116;2023-07-13T09:28:51;9.00;;;4.65;;
55589;SDS011;41452;42.780;23.116;2023-07-13T09:33:51;7.50;;;4.57;;
55589;SDS011;41452;42.780;23.116;2023-07-13T09:38:44;6.57;;;4.43;;
55589;SDS011;41452;42.780;23.116;2023-07-13T09:41:20;7.82;;;4.18;;
55589;SDS011;41452;42.780;23.116;2023-07-13T09:46:39;8.38;;;4.18;;
55589;SDS011;41452;42.780;23.116;2023-07-13T09:49:09;7.60;;;4.03;;
55589;SDS011;41452;42.780;23.116;2023-07-13T09:51:36;8.82;;;4.22;;
55589;SDS011;41452;42.780;23.116;2023-07-13T09:54:04;6.72;;;4.03;;
55589;SDS011;41452;42.780;23.116;2023-07-13T09:56:29;8.32;;;4.40;;
55589;SDS011;41452;42.780;23.116;2023-07-13T09:58:55;6.90;;;4.70;;
55589;SDS011;41452;42.780;23.116;2023-07-13T10:01:32;7.13;;;4.30;;
55589;SDS011;41452;42.780;23.116;2023-07-13T10:04:00;11.60;;;4.38;;
55589;SDS011;41452;42.780;23.116;2023-07-13T10:06:25;7.15;;;4.40;;
55589;SDS011;41452;42.780;23.116;2023-07-13T10:08:51;6.10;;;3.90;;
55589;SDS011;41452;42.780;23.116;2023-07-13T10:11:19;7.72;;;4.00;;
55589;SDS011;41452;42.780;23.116;2023-07-13T10:13:56;11.43;;;4.45;;
55589;SDS011;41452;42.780;23.116;2023-07-13T10:16:25;9.82;;;4.38;;
55589;SDS011;41452;42.780;23.116;2023-07-13T10:18:58;11.48;;;4.53;;
55589;SDS011;41452;42.780;23.116;2023-07-13T10:21:28;6.57;;;3.85;;
55589;SDS011;41452;42.780;23.116;2023-07-13T10:24:18;9.20;;;3.92;;
55589;SDS011;41452;42.780;23.116;2023-07-13T10:26:48;8.13;;;3.80;;
55589;SDS011;41452;42.780;23.116;2023-07-13T10:29:21;10.30;;;4.25;;
55589;SDS011;41452;42.780;23.116;2023-07-13T10:31:48;7.05;;;4.10;;
55589;SDS011;41452;42.780;23.116;2023-07-13T10:34:15;5.28;;;3.78;;
55589;SDS011;41452;42.780;23.116;2023-07-13T10:36:43;7.05;;;4.10;;
55589;SDS011;41452;42.780;23.116;2023-07-13T10:39:14;8.38;;;3.95;;
55589;SDS011;41452;42.780;23.116;2023-07-13T10:41:42;8.23;;;4.13;;
55589;SDS011;41452;42.780;23.116;2023-07-13T10:44:15;6.68;;;4.10;;
55589;SDS011;41452;42.780;23.116;2023-07-13T10:46:45;7.38;;;4.30;;
55589;SDS011;41452;42.780;23.116;2023-07-13T10:49:11;6.07;;;4.00;;
55589;SDS011;41452;42.780;23.116;2023-07-13T10:51:37;7.63;;;3.90;;
55589;SDS011;41452;42.780;23.116;2023-07-13T10:56:34;7.45;;;4.47;;
55589;SDS011;41452;42.780;23.116;2023-07-13T10:59:01;13.82;;;4.00;;
55589;SDS011;41452;42.780;23.116;2023-07-13T11:02:21;7.45;;;4.10;;
55589;SDS011;41452;42.780;23.116;2023-07-13T11:04:31;8.93;;;4.25;;
55589;SDS011;41452;42.780;23.116;2023-07-13T11:07:11;7.25;;;4.32;;
55589;SDS011;41452;42.780;23.116;2023-07-13T11:09:49;8.45;;;3.85;;
55589;SDS011;41452;42.780;23.116;2023-07-13T11:22:43;9.30;;;4.38;;
55589;SDS011;41452;42.780;23.116;2023-07-13T11:25:28;8.85;;;3.92;;
55589;SDS011;41452;42.780;23.116;2023-07-13T11:28:38;10.82;;;4.50;;
55589;SDS011;41452;42.780;23.116;2023-07-13T11:38:38;7.40;;;3.80;;
55589;SDS011;41452;42.780;23.116;2023-07-13T11:43:42;9.00;;;3.80;;
55589;SDS011;41452;42.780;23.116;2023-07-13T11:46:20;9.48;;;4.32;;
55589;SDS011;41452;42.780;23.116;2023-07-13T11:48:48;10.63;;;4.32;;
55589;SDS011;41452;42.780;23.116;2023-07-13T11:51:36;9.45;;;4.15;;
55589;SDS011;41452;42.780;23.116;2023-07-13T11:54:03;11.13;;;4.63;;
55589;SDS011;41452;42.780;23.116;2023-07-13T11:56:32;10.13;;;3.90;;
55589;SDS011;41452;42.780;23.116;2023-07-13T11:58:59;6.85;;;4.22;;
55589;SDS011;41452;42.780;23.116;2023-07-13T12:01:31;7.47;;;3.72;;
55589;SDS011;41452;42.780;23.116;2023-07-13T12:03:58;8.45;;;3.97;;
55589;SDS011;41452;42.780;23.116;2023-07-13T12:06:33;7.32;;;4.05;;
55589;SDS011;41452;42.780;23.116;2023-07-13T12:09:03;5.55;;;3.60;;
55589;SDS011;41452;42.780;23.116;2023-07-13T12:11:39;7.85;;;3.80;;
55589;SDS011;41452;42.780;23.116;2023-07-13T12:14:10;7.68;;;4.10;;
55589;SDS011;41452;42.780;23.116;2023-07-13T12:16:38;7.15;;;3.80;;
55589;SDS011;41452;42.780;23.116;2023-07-13T12:19:09;8.07;;;3.92;;
55589;SDS011;41452;42.780;23.116;2023-07-13T12:21:47;8.50;;;4.15;;
55589;SDS011;41452;42.780;23.116;2023-07-13T12:24:15;8.27;;;4.38;;
55589;SDS011;41452;42.780;23.116;2023-07-13T12:26:50;7.53;;;4.20;;
55589;SDS011;41452;42.780;23.116;2023-07-13T12:29:17;8.00;;;3.67;;
55589;SDS011;41452;42.780;23.116;2023-07-13T12:31:44;7.80;;;4.18;;
55589;SDS011;41452;42.780;23.116;2023-07-13T12:34:13;9.57;;;3.80;;
55589;SDS011;41452;42.780;23.116;2023-07-13T12:36:41;7.47;;;3.70;;
55589;SDS011;41452;42.780;23.116;2023-07-13T12:39:26;8.13;;;4.28;;
55589;SDS011;41452;42.780;23.116;2023-07-13T12:44:53;10.15;;;3.83;;
55589;SDS011;41452;42.780;23.116;2023-07-13T12:47:20;7.15;;;4.07;;
55589;SDS011;41452;42.780;23.116;2023-07-13T12:49:49;11.27;;;4.25;;
55589;SDS011;41452;42.780;23.116;2023-07-13T12:52:20;6.38;;;3.90;;
55589;SDS011;41452;42.780;23.116;2023-07-13T12:55:15;11.55;;;4.15;;
55589;SDS011;41452;42.780;23.116;2023-07-13T12:57:50;9.25;;;4.35;;
55589;SDS011;41452;42.780;23.116;2023-07-13T13:00:28;13.75;;;4.32;;
55589;SDS011;41452;42.780;23.116;2023-07-13T13:03:07;9.82;;;3.83;;
55589;SDS011;41452;42.780;23.116;2023-07-13T13:05:44;7.55;;;3.67;;
55589;SDS011;41452;42.780;23.116;2023-07-13T13:08:10;6.07;;;3.60;;
55589;SDS011;41452;42.780;23.116;2023-07-13T13:10:37;8.30;;;4.57;;
55589;SDS011;41452;42.780;23.116;2023-07-13T13:13:02;11.70;;;4.18;;
55589;SDS011;41452;42.780;23.116;2023-07-13T13:15:28;11.82;;;4.20;;
55589;SDS011;41452;42.780;23.116;2023-07-13T13:17:54;11.70;;;4.22;;
55589;SDS011;41452;42.780;23.116;2023-07-13T13:20:21;11.50;;;3.78;;
55589;SDS011;41452;42.780;23.116;2023-07-13T13:22:48;9.18;;;3.90;;
55589;SDS011;41452;42.780;23.116;2023-07-13T13:25:14;9.35;;;4.07;;
55589;SDS011;41452;42.780;23.116;2023-07-13T13:27:40;12.77;;;4.43;;
55589;SDS011;41452;42.780;23.116;2023-07-13T13:30:14;9.50;;;4.25;;
55589;SDS011;41452;42.780;23.116;2023-07-13T13:32:41;7.57;;;4.10;;
55589;SDS011;41452;42.780;23.116;2023-07-13T13:35:14;6.85;;;3.60;;
55589;SDS011;41452;42.780;23.116;2023-07-13T13:37:40;9.48;;;4.25;;
55589;SDS011;41452;42.780;23.116;2023-07-13T13:40:19;8.43;;;4.18;;
55589;SDS011;41452;42.780;23.116;2023-07-13T13:42:48;7.35;;;4.03;;
55589;SDS011;41452;42.780;23.116;2023-07-13T13:45:13;11.20;;;4.32;;
55589;SDS011;41452;42.780;23.116;2023-07-13T13:47:41;8.32;;;3.65;;
55589;SDS011;41452;42.780;23.116;2023-07-13T13:50:20;6.72;;;3.60;;
55589;SDS011;41452;42.780;23.116;2023-07-13T13:52:49;5.80;;;3.40;;
55589;SDS011;41452;42.780;23.116;2023-07-13T13:55:16;7.35;;;4.03;;
55589;SDS011;41452;42.780;23.116;2023-07-13T13:57:46;6.93;;;3.80;;
55589;SDS011;41452;42.780;23.116;2023-07-13T14:00:13;11.80;;;3.72;;
55589;SDS011;41452;42.780;23.116;2023-07-13T14:02:42;9.43;;;3.25;;
55589;SDS011;41452;42.780;23.116;2023-07-13T14:05:12;8.52;;;4.00;;
55589;SDS011;41452;42.780;23.116;2023-07-13T14:07:39;7.70;;;3.65;;
55589;SDS011;41452;42.780;23.116;2023-07-13T14:10:10;7.93;;;3.85;;
55589;SDS011;41452;42.780;23.116;2023-07-13T14:12:38;7.20;;;3.78;;
55589;SDS011;41452;42.780;23.116;2023-07-13T14:15:04;9.18;;;3.72;;
55589;SDS011;41452;42.780;23.116;2023-07-13T14:17:29;7.68;;;4.20;;
55589;SDS011;41452;42.780;23.116;2023-07-13T14:19:56;6.43;;;3.85;;
55589;SDS011;41452;42.780;23.116;2023-07-13T14:22:25;7.30;;;3.67;;
55589;SDS011;41452;42.780;23.116;2023-07-13T14:24:52;7.47;;;3.80;;
55589;SDS011;41452;42.780;23.116;2023-07-13T14:27:18;10.10;;;3.65;;
55589;SDS011;41452;42.780;23.116;2023-07-13T14:29:44;6.45;;;3.70;;
55589;SDS011;41452;42.780;23.116;2023-07-13T14:32:10;9.93;;;3.58;;
55589;SDS011;41452;42.780;23.116;2023-07-13T14:34:37;7.60;;;3.80;;
55589;SDS011;41452;42.780;23.116;2023-07-13T14:37:02;8.10;;;3.55;;
55589;SDS011;41452;42.780;23.116;2023-07-13T14:39:29;8.13;;;3.72;;
55589;SDS011;41452;42.780;23.116;2023-07-13T14:41:55;8.98;;;4.28;;
55589;SDS011;41452;42.780;23.116;2023-07-13T14:44:31;9.50;;;4.07;;
55589;SDS011;41452;42.780;23.116;2023-07-13T14:46:57;8.63;;;4.07;;
55589;SDS011;41452;42.780;23.116;2023-07-13T14:51:59;8.10;;;4.10;;
55589;SDS011;41452;42.780;23.116;2023-07-13T14:54:26;12.77;;;4.00;;
55589;SDS011;41452;42.780;23.116;2023-07-13T14:56:52;5.97;;;3.33;;
55589;SDS011;41452;42.780;23.116;2023-07-13T14:59:17;9.30;;;3.65;;
55589;SDS011;41452;42.780;23.116;2023-07-13T15:01:46;13.00;;;4.25;;
55589;SDS011;41452;42.780;23.116;2023-07-13T15:04:13;11.32;;;3.55;;
55589;SDS011;41452;42.780;23.116;2023-07-13T15:06:55;8.32;;;4.28;;
55589;SDS011;41452;42.780;23.116;2023-07-13T15:11:51;8.52;;;4.70;;
55589;SDS011;41452;42.780;23.116;2023-07-13T15:14:17;9.75;;;4.43;;
55589;SDS011;41452;42.780;23.116;2023-07-13T15:16:42;9.88;;;5.18;;
55589;SDS011;41452;42.780;23.116;2023-07-13T15:19:15;8.13;;;4.47;;
55589;SDS011;41452;42.780;23.116;2023-07-13T15:21:43;7.97;;;4.47;;
55589;SDS011;41452;42.780;23.116;2023-07-13T15:24:08;9.00;;;4.60;;
55589;SDS011;41452;42.780;23.116;2023-07-13T15:26:35;7.97;;;4.97;;
55589;SDS011;41452;42.780;23.116;2023-07-13T15:29:00;7.30;;;4.57;;
55589;SDS011;41452;42.780;23.116;2023-07-13T15:31:26;21.52;;;9.80;;
55589;SDS011;41452;42.780;23.116;2023-07-13T15:33:56;14.23;;;7.70;;
55589;SDS011;41452;42.780;23.116;2023-07-13T15:36:23;20.30;;;9.18;;
55589;SDS011;41452;42.780;23.116;2023-07-13T15:38:52;18.63;;;10.23;;
55589;SDS011;41452;42.780;23.116;2023-07-13T15:41:26;13.02;;;7.13;;